sensor_id;sensor_type;location;lat;lon;timestamp;P1;durP1;ratioP1;P2;durP2;ratioP2
15996;SDS011;8103;51.340;12.326;2023-02-15T00:05:32;33.50;;;20.95;;
15996;SDS011;8103;51.340;12.326;2023-02-15T00:07:59;39.08;;;24.13;;
15996;SDS011;8103;51.340;12.326;2023-02-15T00:10:29;33.25;;;21.48;;
15996;SDS011;8103;51.340;12.326;2023-02-15T00:12:59;34.55;;;21.23;;
15996;SDS011;8103;51.340;12.326;2023-02-15T00:15:26;34.25;;;21.13;;
15996;SDS011;8103;51.340;12.326;2023-02-15T00:17:53;40.03;;;23.33;;
15996;SDS011;8103;51.340;12.326;2023-02-15T00:20:20;36.08;;;21.67;;
15996;SDS011;8103;51.340;12.326;2023-02-15T00:22:48;37.53;;;22.85;;
15996;SDS011;8103;51.340;12.326;2023-02-15T00:25:15;34.60;;;22.05;;
15996;SDS011;8103;51.340;12.326;2023-02-15T00:27:42;35.47;;;20.88;;
15996;SDS011;8103;51.340;12.326;2023-02-15T00:34:03;38.20;;;22.58;;
15996;SDS011;8103;51.340;12.326;2023-02-15T00:36:33;33.17;;;20.90;;
15996;SDS011;8103;51.340;12.326;2023-02-15T00:39:00;38.25;;;23.17;;
15996;SDS011;8103;51.340;12.326;2023-02-15T00:41:27;37.67;;;21.75;;
15996;SDS011;8103;51.340;12.326;2023-02-15T00:47:36;32.28;;;19.60;;
15996;SDS011;8103;51.340;12.326;2023-02-15T00:50:02;31.55;;;21.02;;
15996;SDS011;8103;51.340;12.326;2023-02-15T00:52:31;35.38;;;19.98;;
15996;SDS011;8103;51.340;12.326;2023-02-15T00:54:58;35.15;;;22.98;;
15996;SDS011;8103;51.340;12.326;2023-02-15T00:57:24;30.35;;;19.88;;
15996;SDS011;8103;51.340;12.326;2023-02-15T00:59:51;31.35;;;19.80;;
15996;SDS011;8103;51.340;12.326;2023-02-15T01:02:18;30.38;;;20.15;;
15996;SDS011;8103;51.340;12.326;2023-02-15T01:04:45;35.08;;;20.77;;
15996;SDS011;8103;51.340;12.326;2023-02-15T01:07:12;34.83;;;20.80;;
15996;SDS011;8103;51.340;12.326;2023-02-15T01:09:38;32.88;;;20.48;;
15996;SDS011;8103;51.340;12.326;2023-02-15T01:12:05;31.40;;;19.10;;
15996;SDS011;8103;51.340;12.326;2023-02-15T01:14:32;30.17;;;18.50;;
15996;SDS011;8103;51.340;12.326;2023-02-15T01:16:59;32.40;;;18.77;;
15996;SDS011;8103;51.340;12.326;2023-02-15T01:19:26;29.00;;;19.45;;
15996;SDS011;8103;51.340;12.326;2023-02-15T01:21:52;33.42;;;20.88;;
15996;SDS011;8103;51.340;12.326;2023-02-15T01:24:19;30.25;;;18.15;;
15996;SDS011;8103;51.340;12.326;2023-02-15T01:26:46;29.42;;;19.65;;
15996;SDS011;8103;51.340;12.326;2023-02-15T01:29:13;28.30;;;18.05;;
15996;SDS011;8103;51.340;12.326;2023-02-15T01:31:39;31.52;;;20.30;;
15996;SDS011;8103;51.340;12.326;2023-02-15T01:34:06;29.85;;;18.55;;
15996;SDS011;8103;51.340;12.326;2023-02-15T01:36:33;32.33;;;18.50;;
15996;SDS011;8103;51.340;12.326;2023-02-15T01:39:01;34.92;;;19.25;;
15996;SDS011;8103;51.340;12.326;2023-02-15T01:41:28;28.63;;;18.55;;
15996;SDS011;8103;51.340;12.326;2023-02-15T01:43:56;26.83;;;17.55;;
15996;SDS011;8103;51.340;12.326;2023-02-15T01:46:31;27.27;;;18.15;;
15996;SDS011;8103;51.340;12.326;2023-02-15T01:49:16;28.15;;;18.42;;
15996;SDS011;8103;51.340;12.326;2023-02-15T01:51:47;35.50;;;19.48;;
15996;SDS011;8103;51.340;12.326;2023-02-15T01:54:23;30.77;;;20.70;;
15996;SDS011;8103;51.340;12.326;2023-02-15T01:57:00;32.10;;;20.83;;
15996;SDS011;8103;51.340;12.326;2023-02-15T01:59:33;35.42;;;19.73;;
15996;SDS011;8103;51.340;12.326;2023-02-15T02:02:03;28.50;;;18.38;;
15996;SDS011;8103;51.340;12.326;2023-02-15T02:04:39;26.65;;;16.40;;
15996;SDS011;8103;51.340;12.326;2023-02-15T02:07:17;32.38;;;19.77;;
15996;SDS011;8103;51.340;12.326;2023-02-15T02:09:48;27.50;;;16.48;;
15996;SDS011;8103;51.340;12.326;2023-02-15T02:12:16;26.15;;;16.95;;
15996;SDS011;8103;51.340;12.326;2023-02-15T02:14:46;29.67;;;17.58;;
15996;SDS011;8103;51.340;12.326;2023-02-15T02:26:31;25.10;;;15.98;;
15996;SDS011;8103;51.340;12.326;2023-02-15T02:36:00;27.02;;;16.98;;
15996;SDS011;8103;51.340;12.326;2023-02-15T02:39:22;28.95;;;18.15;;
15996;SDS011;8103;51.340;12.326;2023-02-15T02:41:53;29.35;;;18.38;;
15996;SDS011;8103;51.340;12.326;2023-02-15T02:49:58;24.63;;;15.60;;
15996;SDS011;8103;51.340;12.326;2023-02-15T02:52:44;24.10;;;16.08;;
15996;SDS011;8103;51.340;12.326;2023-02-15T02:55:30;27.13;;;16.58;;
15996;SDS011;8103;51.340;12.326;2023-02-15T03:01:01;27.17;;;17.23;;
15996;SDS011;8103;51.340;12.326;2023-02-15T03:03:38;28.95;;;17.45;;
15996;SDS011;8103;51.340;12.326;2023-02-15T03:06:17;25.38;;;17.83;;
15996;SDS011;8103;51.340;12.326;2023-02-15T03:08:55;28.17;;;15.75;;
15996;SDS011;8103;51.340;12.326;2023-02-15T03:11:32;28.27;;;17.20;;
15996;SDS011;8103;51.340;12.326;2023-02-15T03:14:00;24.17;;;15.70;;
15996;SDS011;8103;51.340;12.326;2023-02-15T03:16:27;25.02;;;15.73;;
15996;SDS011;8103;51.340;12.326;2023-02-15T03:21:41;26.08;;;16.67;;
15996;SDS011;8103;51.340;12.326;2023-02-15T03:24:25;25.23;;;15.35;;
15996;SDS011;8103;51.340;12.326;2023-02-15T03:27:06;23.40;;;15.57;;
15996;SDS011;8103;51.340;12.326;2023-02-15T03:29:44;25.30;;;15.93;;
15996;SDS011;8103;51.340;12.326;2023-02-15T03:32:17;26.30;;;15.68;;
15996;SDS011;8103;51.340;12.326;2023-02-15T03:34:44;21.15;;;14.65;;
15996;SDS011;8103;51.340;12.326;2023-02-15T03:37:21;26.27;;;15.82;;
15996;SDS011;8103;51.340;12.326;2023-02-15T03:40:04;23.48;;;15.35;;
15996;SDS011;8103;51.340;12.326;2023-02-15T03:43:17;27.95;;;15.82;;
15996;SDS011;8103;51.340;12.326;2023-02-15T03:46:06;20.40;;;14.95;;
15996;SDS011;8103;51.340;12.326;2023-02-15T03:48:45;22.10;;;14.57;;
15996;SDS011;8103;51.340;12.326;2023-02-15T03:51:20;25.05;;;14.70;;
15996;SDS011;8103;51.340;12.326;2023-02-15T03:54:06;25.65;;;14.48;;
15996;SDS011;8103;51.340;12.326;2023-02-15T03:57:07;20.80;;;14.57;;
15996;SDS011;8103;51.340;12.326;2023-02-15T03:59:58;27.83;;;17.83;;
15996;SDS011;8103;51.340;12.326;2023-02-15T04:02:49;30.17;;;16.50;;
15996;SDS011;8103;51.340;12.326;2023-02-15T04:05:33;27.77;;;15.85;;
15996;SDS011;8103;51.340;12.326;2023-02-15T04:08:00;24.13;;;15.90;;
15996;SDS011;8103;51.340;12.326;2023-02-15T04:10:28;26.05;;;16.73;;
15996;SDS011;8103;51.340;12.326;2023-02-15T04:13:13;21.02;;;14.77;;
15996;SDS011;8103;51.340;12.326;2023-02-15T04:15:40;24.50;;;16.30;;
15996;SDS011;8103;51.340;12.326;2023-02-15T04:18:26;31.00;;;17.00;;
15996;SDS011;8103;51.340;12.326;2023-02-15T04:21:11;25.20;;;17.20;;
15996;SDS011;8103;51.340;12.326;2023-02-15T04:23:57;26.13;;;17.23;;
15996;SDS011;8103;51.340;12.326;2023-02-15T04:26:42;31.05;;;17.98;;
15996;SDS011;8103;51.340;12.326;2023-02-15T04:29:09;23.70;;;15.60;;
15996;SDS011;8103;51.340;12.326;2023-02-15T04:31:36;23.35;;;16.05;;
15996;SDS011;8103;51.340;12.326;2023-02-15T04:34:03;24.90;;;16.17;;
15996;SDS011;8103;51.340;12.326;2023-02-15T04:36:29;25.20;;;15.32;;
15996;SDS011;8103;51.340;12.326;2023-02-15T04:38:56;22.67;;;15.02;;
15996;SDS011;8103;51.340;12.326;2023-02-15T04:41:23;24.73;;;15.32;;
15996;SDS011;8103;51.340;12.326;2023-02-15T04:43:49;19.40;;;14.07;;
15996;SDS011;8103;51.340;12.326;2023-02-15T04:46:16;22.63;;;14.70;;
15996;SDS011;8103;51.340;12.326;2023-02-15T04:48:43;24.20;;;15.27;;
15996;SDS011;8103;51.340;12.326;2023-02-15T04:51:10;23.70;;;14.73;;
15996;SDS011;8103;51.340;12.326;2023-02-15T04:53:37;22.08;;;14.27;;
15996;SDS011;8103;51.340;12.326;2023-02-15T04:56:04;24.27;;;16.20;;
15996;SDS011;8103;51.340;12.326;2023-02-15T04:58:30;22.00;;;14.65;;
15996;SDS011;8103;51.340;12.326;2023-02-15T05:00:57;21.77;;;14.15;;
15996;SDS011;8103;51.340;12.326;2023-02-15T05:03:25;20.92;;;13.98;;
15996;SDS011;8103;51.340;12.326;2023-02-15T05:05:51;23.38;;;15.02;;
15996;SDS011;8103;51.340;12.326;2023-02-15T05:08:18;24.55;;;15.68;;
15996;SDS011;8103;51.340;12.326;2023-02-15T05:10:47;20.73;;;14.25;;
15996;SDS011;8103;51.340;12.326;2023-02-15T05:13:15;18.73;;;13.00;;
15996;SDS011;8103;51.340;12.326;2023-02-15T05:15:46;24.33;;;15.30;;
15996;SDS011;8103;51.340;12.326;2023-02-15T05:18:17;23.25;;;14.95;;
15996;SDS011;8103;51.340;12.326;2023-02-15T05:20:45;24.60;;;14.63;;
15996;SDS011;8103;51.340;12.326;2023-02-15T05:23:13;21.02;;;14.43;;
15996;SDS011;8103;51.340;12.326;2023-02-15T05:25:41;20.95;;;13.30;;
15996;SDS011;8103;51.340;12.326;2023-02-15T05:28:36;23.08;;;13.40;;
15996;SDS011;8103;51.340;12.326;2023-02-15T05:31:07;18.83;;;12.75;;
15996;SDS011;8103;51.340;12.326;2023-02-15T05:33:40;21.00;;;13.48;;
15996;SDS011;8103;51.340;12.326;2023-02-15T05:36:07;20.92;;;12.82;;
15996;SDS011;8103;51.340;12.326;2023-02-15T05:38:36;21.23;;;13.98;;
15996;SDS011;8103;51.340;12.326;2023-02-15T05:41:04;24.50;;;13.82;;
15996;SDS011;8103;51.340;12.326;2023-02-15T05:43:32;16.48;;;11.00;;
15996;SDS011;8103;51.340;12.326;2023-02-15T05:45:59;18.58;;;13.18;;
15996;SDS011;8103;51.340;12.326;2023-02-15T05:48:27;26.20;;;13.82;;
15996;SDS011;8103;51.340;12.326;2023-02-15T05:50:58;20.15;;;11.85;;
15996;SDS011;8103;51.340;12.326;2023-02-15T05:53:29;19.20;;;11.98;;
15996;SDS011;8103;51.340;12.326;2023-02-15T05:55:58;19.08;;;13.32;;
15996;SDS011;8103;51.340;12.326;2023-02-15T05:58:27;27.20;;;12.18;;
15996;SDS011;8103;51.340;12.326;2023-02-15T06:00:59;21.00;;;13.57;;
15996;SDS011;8103;51.340;12.326;2023-02-15T06:03:38;20.02;;;12.32;;
15996;SDS011;8103;51.340;12.326;2023-02-15T06:06:05;15.30;;;11.20;;
15996;SDS011;8103;51.340;12.326;2023-02-15T06:08:33;16.85;;;11.95;;
15996;SDS011;8103;51.340;12.326;2023-02-15T06:11:02;18.88;;;11.85;;
15996;SDS011;8103;51.340;12.326;2023-02-15T06:13:29;19.63;;;11.98;;
15996;SDS011;8103;51.340;12.326;2023-02-15T06:15:56;16.90;;;11.73;;
15996;SDS011;8103;51.340;12.326;2023-02-15T06:18:23;17.48;;;11.95;;
15996;SDS011;8103;51.340;12.326;2023-02-15T06:20:50;16.92;;;11.18;;
15996;SDS011;8103;51.340;12.326;2023-02-15T06:23:17;17.33;;;11.25;;
15996;SDS011;8103;51.340;12.326;2023-02-15T06:25:44;17.10;;;11.48;;
15996;SDS011;8103;51.340;12.326;2023-02-15T06:28:12;19.73;;;12.23;;
15996;SDS011;8103;51.340;12.326;2023-02-15T06:30:39;18.45;;;12.40;;
15996;SDS011;8103;51.340;12.326;2023-02-15T06:33:06;16.02;;;11.65;;
15996;SDS011;8103;51.340;12.326;2023-02-15T06:35:33;18.40;;;12.13;;
15996;SDS011;8103;51.340;12.326;2023-02-15T06:38:00;20.80;;;12.40;;
15996;SDS011;8103;51.340;12.326;2023-02-15T06:40:27;17.33;;;11.75;;
15996;SDS011;8103;51.340;12.326;2023-02-15T06:42:53;18.20;;;12.27;;
15996;SDS011;8103;51.340;12.326;2023-02-15T06:45:20;18.55;;;12.82;;
15996;SDS011;8103;51.340;12.326;2023-02-15T06:47:47;26.85;;;15.57;;
15996;SDS011;8103;51.340;12.326;2023-02-15T06:50:14;21.17;;;13.85;;
15996;SDS011;8103;51.340;12.326;2023-02-15T06:52:40;20.90;;;14.35;;
15996;SDS011;8103;51.340;12.326;2023-02-15T06:55:07;20.27;;;14.45;;
15996;SDS011;8103;51.340;12.326;2023-02-15T06:57:34;20.65;;;13.63;;
15996;SDS011;8103;51.340;12.326;2023-02-15T07:00:01;23.08;;;14.68;;
15996;SDS011;8103;51.340;12.326;2023-02-15T07:02:30;22.00;;;13.43;;
15996;SDS011;8103;51.340;12.326;2023-02-15T07:04:57;24.08;;;14.95;;
15996;SDS011;8103;51.340;12.326;2023-02-15T07:07:24;21.23;;;13.68;;
15996;SDS011;8103;51.340;12.326;2023-02-15T07:09:51;20.83;;;14.52;;
15996;SDS011;8103;51.340;12.326;2023-02-15T07:12:18;21.88;;;13.05;;
15996;SDS011;8103;51.340;12.326;2023-02-15T07:15:03;20.02;;;12.15;;
15996;SDS011;8103;51.340;12.326;2023-02-15T07:17:32;21.50;;;14.00;;
15996;SDS011;8103;51.340;12.326;2023-02-15T07:20:05;19.30;;;12.48;;
15996;SDS011;8103;51.340;12.326;2023-02-15T07:22:52;22.20;;;13.43;;
15996;SDS011;8103;51.340;12.326;2023-02-15T07:25:19;19.73;;;13.52;;
15996;SDS011;8103;51.340;12.326;2023-02-15T07:27:46;20.48;;;12.80;;
15996;SDS011;8103;51.340;12.326;2023-02-15T07:30:16;19.92;;;12.98;;
15996;SDS011;8103;51.340;12.326;2023-02-15T07:32:43;19.55;;;12.15;;
15996;SDS011;8103;51.340;12.326;2023-02-15T07:35:31;16.52;;;12.23;;
15996;SDS011;8103;51.340;12.326;2023-02-15T07:37:59;18.45;;;13.00;;
15996;SDS011;8103;51.340;12.326;2023-02-15T07:40:26;17.67;;;12.13;;
15996;SDS011;8103;51.340;12.326;2023-02-15T07:42:57;22.17;;;13.70;;
15996;SDS011;8103;51.340;12.326;2023-02-15T07:45:25;18.02;;;13.52;;
15996;SDS011;8103;51.340;12.326;2023-02-15T07:47:52;21.40;;;14.05;;
15996;SDS011;8103;51.340;12.326;2023-02-15T07:50:19;20.52;;;13.82;;
15996;SDS011;8103;51.340;12.326;2023-02-15T07:52:45;19.38;;;12.85;;
15996;SDS011;8103;51.340;12.326;2023-02-15T07:55:12;18.83;;;12.35;;
15996;SDS011;8103;51.340;12.326;2023-02-15T07:57:43;17.10;;;12.00;;
15996;SDS011;8103;51.340;12.326;2023-02-15T08:00:12;16.92;;;10.95;;
15996;SDS011;8103;51.340;12.326;2023-02-15T08:02:42;14.52;;;10.65;;
15996;SDS011;8103;51.340;12.326;2023-02-15T08:05:18;21.65;;;11.65;;
15996;SDS011;8103;51.340;12.326;2023-02-15T08:07:45;14.75;;;10.82;;
15996;SDS011;8103;51.340;12.326;2023-02-15T08:10:12;21.58;;;13.52;;
15996;SDS011;8103;51.340;12.326;2023-02-15T08:12:58;15.70;;;11.88;;
15996;SDS011;8103;51.340;12.326;2023-02-15T08:15:25;14.10;;;10.68;;
15996;SDS011;8103;51.340;12.326;2023-02-15T08:17:52;19.27;;;11.30;;
15996;SDS011;8103;51.340;12.326;2023-02-15T08:20:22;14.63;;;10.38;;
15996;SDS011;8103;51.340;12.326;2023-02-15T08:22:49;13.35;;;9.43;;
15996;SDS011;8103;51.340;12.326;2023-02-15T08:25:16;13.98;;;10.50;;
15996;SDS011;8103;51.340;12.326;2023-02-15T08:27:43;16.45;;;11.18;;
15996;SDS011;8103;51.340;12.326;2023-02-15T08:30:10;16.55;;;9.88;;
15996;SDS011;8103;51.340;12.326;2023-02-15T08:32:40;12.50;;;9.60;;
15996;SDS011;8103;51.340;12.326;2023-02-15T08:35:07;11.85;;;8.88;;
15996;SDS011;8103;51.340;12.326;2023-02-15T08:37:34;14.05;;;8.98;;
15996;SDS011;8103;51.340;12.326;2023-02-15T08:40:01;15.55;;;9.07;;
15996;SDS011;8103;51.340;12.326;2023-02-15T08:42:28;11.60;;;8.30;;
15996;SDS011;8103;51.340;12.326;2023-02-15T08:44:56;13.68;;;8.07;;
15996;SDS011;8103;51.340;12.326;2023-02-15T08:47:23;11.13;;;6.80;;
15996;SDS011;8103;51.340;12.326;2023-02-15T08:49:50;12.07;;;7.80;;
15996;SDS011;8103;51.340;12.326;2023-02-15T08:52:17;12.40;;;8.70;;
15996;SDS011;8103;51.340;12.326;2023-02-15T08:54:47;13.85;;;7.15;;
15996;SDS011;8103;51.340;12.326;2023-02-15T08:57:14;11.15;;;7.18;;
15996;SDS011;8103;51.340;12.326;2023-02-15T08:59:41;13.48;;;9.20;;
15996;SDS011;8103;51.340;12.326;2023-02-15T09:02:09;13.90;;;8.07;;
15996;SDS011;8103;51.340;12.326;2023-02-15T09:04:36;15.40;;;7.53;;
15996;SDS011;8103;51.340;12.326;2023-02-15T09:11:13;10.75;;;6.40;;
15996;SDS011;8103;51.340;12.326;2023-02-15T09:13:49;8.73;;;5.90;;
15996;SDS011;8103;51.340;12.326;2023-02-15T09:16:25;10.00;;;6.45;;
15996;SDS011;8103;51.340;12.326;2023-02-15T09:18:55;8.95;;;5.70;;
15996;SDS011;8103;51.340;12.326;2023-02-15T09:21:28;16.75;;;6.63;;
15996;SDS011;8103;51.340;12.326;2023-02-15T09:23:56;10.23;;;5.45;;
15996;SDS011;8103;51.340;12.326;2023-02-15T09:26:26;9.23;;;4.60;;
15996;SDS011;8103;51.340;12.326;2023-02-15T09:29:00;5.47;;;4.65;;
15996;SDS011;8103;51.340;12.326;2023-02-15T09:31:30;15.90;;;5.35;;
15996;SDS011;8103;51.340;12.326;2023-02-15T09:34:00;6.53;;;4.65;;
15996;SDS011;8103;51.340;12.326;2023-02-15T09:36:32;6.70;;;4.35;;
15996;SDS011;8103;51.340;12.326;2023-02-15T09:39:06;6.50;;;4.60;;
15996;SDS011;8103;51.340;12.326;2023-02-15T09:41:57;6.55;;;5.20;;
15996;SDS011;8103;51.340;12.326;2023-02-15T09:45:13;8.82;;;5.97;;
15996;SDS011;8103;51.340;12.326;2023-02-15T09:51:03;8.07;;;5.63;;
15996;SDS011;8103;51.340;12.326;2023-02-15T09:54:08;7.93;;;5.68;;
15996;SDS011;8103;51.340;12.326;2023-02-15T09:56:51;8.20;;;5.53;;
15996;SDS011;8103;51.340;12.326;2023-02-15T10:02:33;6.30;;;4.88;;
15996;SDS011;8103;51.340;12.326;2023-02-15T10:17:43;7.18;;;5.60;;
15996;SDS011;8103;51.340;12.326;2023-02-15T10:20:45;6.13;;;5.07;;
15996;SDS011;8103;51.340;12.326;2023-02-15T10:23:33;10.10;;;4.95;;
15996;SDS011;8103;51.340;12.326;2023-02-15T10:26:42;9.13;;;5.50;;
15996;SDS011;8103;51.340;12.326;2023-02-15T10:29:15;12.10;;;5.38;;
15996;SDS011;8103;51.340;12.326;2023-02-15T10:32:07;6.22;;;4.15;;
15996;SDS011;8103;51.340;12.326;2023-02-15T10:35:03;5.63;;;4.15;;
15996;SDS011;8103;51.340;12.326;2023-02-15T10:38:01;4.13;;;3.65;;
15996;SDS011;8103;51.340;12.326;2023-02-15T10:40:40;8.27;;;4.75;;
15996;SDS011;8103;51.340;12.326;2023-02-15T10:46:22;4.68;;;4.18;;
15996;SDS011;8103;51.340;12.326;2023-02-15T10:49:11;8.65;;;5.90;;
15996;SDS011;8103;51.340;12.326;2023-02-15T10:52:13;5.25;;;3.70;;
15996;SDS011;8103;51.340;12.326;2023-02-15T10:58:13;7.28;;;3.88;;
15996;SDS011;8103;51.340;12.326;2023-02-15T11:01:35;7.18;;;4.03;;
15996;SDS011;8103;51.340;12.326;2023-02-15T11:06:44;7.47;;;4.40;;
15996;SDS011;8103;51.340;12.326;2023-02-15T11:09:19;5.78;;;3.58;;
15996;SDS011;8103;51.340;12.326;2023-02-15T11:11:53;9.02;;;4.30;;
15996;SDS011;8103;51.340;12.326;2023-02-15T11:17:43;5.35;;;4.68;;
15996;SDS011;8103;51.340;12.326;2023-02-15T11:20:38;5.95;;;4.35;;
15996;SDS011;8103;51.340;12.326;2023-02-15T11:23:14;4.93;;;4.43;;
15996;SDS011;8103;51.340;12.326;2023-02-15T11:25:45;4.60;;;3.92;;
15996;SDS011;8103;51.340;12.326;2023-02-15T11:28:27;5.90;;;5.13;;
15996;SDS011;8103;51.340;12.326;2023-02-15T11:31:19;6.90;;;5.75;;
15996;SDS011;8103;51.340;12.326;2023-02-15T11:34:01;5.72;;;4.82;;
15996;SDS011;8103;51.340;12.326;2023-02-15T11:36:39;6.00;;;4.45;;
15996;SDS011;8103;51.340;12.326;2023-02-15T11:39:14;5.38;;;4.88;;
15996;SDS011;8103;51.340;12.326;2023-02-15T11:41:44;6.18;;;4.45;;
15996;SDS011;8103;51.340;12.326;2023-02-15T11:44:27;10.77;;;5.80;;
15996;SDS011;8103;51.340;12.326;2023-02-15T11:47:03;8.73;;;6.07;;
15996;SDS011;8103;51.340;12.326;2023-02-15T11:49:37;6.18;;;5.57;;
15996;SDS011;8103;51.340;12.326;2023-02-15T11:52:06;18.13;;;7.28;;
15996;SDS011;8103;51.340;12.326;2023-02-15T11:54:42;7.60;;;5.93;;
15996;SDS011;8103;51.340;12.326;2023-02-15T11:57:18;10.23;;;6.50;;
15996;SDS011;8103;51.340;12.326;2023-02-15T12:00:20;8.80;;;6.75;;
15996;SDS011;8103;51.340;12.326;2023-02-15T12:02:57;10.13;;;7.20;;
15996;SDS011;8103;51.340;12.326;2023-02-15T12:05:25;5.75;;;5.03;;
15996;SDS011;8103;51.340;12.326;2023-02-15T12:07:53;7.30;;;5.43;;
15996;SDS011;8103;51.340;12.326;2023-02-15T12:10:38;7.40;;;5.95;;
15996;SDS011;8103;51.340;12.326;2023-02-15T12:13:18;9.65;;;6.43;;
15996;SDS011;8103;51.340;12.326;2023-02-15T12:15:47;8.43;;;5.90;;
15996;SDS011;8103;51.340;12.326;2023-02-15T12:18:32;6.88;;;5.75;;
15996;SDS011;8103;51.340;12.326;2023-02-15T12:21:07;6.30;;;5.03;;
15996;SDS011;8103;51.340;12.326;2023-02-15T12:23:41;5.68;;;5.07;;
15996;SDS011;8103;51.340;12.326;2023-02-15T12:26:14;8.82;;;5.05;;
15996;SDS011;8103;51.340;12.326;2023-02-15T12:28:59;9.57;;;5.93;;
15996;SDS011;8103;51.340;12.326;2023-02-15T12:31:40;6.25;;;5.65;;
15996;SDS011;8103;51.340;12.326;2023-02-15T12:34:16;8.25;;;5.57;;
15996;SDS011;8103;51.340;12.326;2023-02-15T12:37:07;6.25;;;4.25;;
15996;SDS011;8103;51.340;12.326;2023-02-15T12:39:53;5.25;;;3.97;;
15996;SDS011;8103;51.340;12.326;2023-02-15T12:42:24;7.32;;;4.82;;
15996;SDS011;8103;51.340;12.326;2023-02-15T12:44:56;6.90;;;4.53;;
15996;SDS011;8103;51.340;12.326;2023-02-15T12:47:46;6.80;;;4.22;;
15996;SDS011;8103;51.340;12.326;2023-02-15T12:50:34;7.15;;;4.15;;
15996;SDS011;8103;51.340;12.326;2023-02-15T12:53:21;5.68;;;3.63;;
15996;SDS011;8103;51.340;12.326;2023-02-15T12:56:00;5.22;;;3.85;;
15996;SDS011;8103;51.340;12.326;2023-02-15T12:58:34;5.85;;;4.15;;
15996;SDS011;8103;51.340;12.326;2023-02-15T13:04:03;4.30;;;3.90;;
15996;SDS011;8103;51.340;12.326;2023-02-15T13:06:31;9.65;;;4.38;;
15996;SDS011;8103;51.340;12.326;2023-02-15T13:09:06;4.10;;;3.70;;
15996;SDS011;8103;51.340;12.326;2023-02-15T13:12:18;3.65;;;3.22;;
15996;SDS011;8103;51.340;12.326;2023-02-15T13:14:53;3.35;;;3.00;;
15996;SDS011;8103;51.340;12.326;2023-02-15T13:17:26;6.05;;;3.88;;
15996;SDS011;8103;51.340;12.326;2023-02-15T13:19:59;4.13;;;3.30;;
15996;SDS011;8103;51.340;12.326;2023-02-15T13:22:43;6.13;;;3.53;;
15996;SDS011;8103;51.340;12.326;2023-02-15T13:27:51;4.07;;;3.40;;
15996;SDS011;8103;51.340;12.326;2023-02-15T13:30:27;4.20;;;3.42;;
15996;SDS011;8103;51.340;12.326;2023-02-15T13:33:05;4.90;;;3.50;;
15996;SDS011;8103;51.340;12.326;2023-02-15T13:35:44;4.22;;;3.35;;
15996;SDS011;8103;51.340;12.326;2023-02-15T13:38:44;3.72;;;3.13;;
15996;SDS011;8103;51.340;12.326;2023-02-15T13:45:50;4.13;;;3.63;;
15996;SDS011;8103;51.340;12.326;2023-02-15T13:48:41;4.32;;;3.28;;
15996;SDS011;8103;51.340;12.326;2023-02-15T13:51:27;4.15;;;2.75;;
15996;SDS011;8103;51.340;12.326;2023-02-15T13:54:36;4.43;;;3.33;;
15996;SDS011;8103;51.340;12.326;2023-02-15T13:57:52;7.03;;;3.42;;
15996;SDS011;8103;51.340;12.326;2023-02-15T14:15:26;4.80;;;3.30;;
15996;SDS011;8103;51.340;12.326;2023-02-15T14:18:19;3.72;;;3.13;;
15996;SDS011;8103;51.340;12.326;2023-02-15T14:24:12;3.05;;;2.75;;
15996;SDS011;8103;51.340;12.326;2023-02-15T14:30:15;8.23;;;3.47;;
15996;SDS011;8103;51.340;12.326;2023-02-15T14:32:51;2.70;;;2.50;;
15996;SDS011;8103;51.340;12.326;2023-02-15T14:35:29;2.85;;;2.45;;
15996;SDS011;8103;51.340;12.326;2023-02-15T14:40:51;4.90;;;3.05;;
15996;SDS011;8103;51.340;12.326;2023-02-15T14:49:15;4.03;;;2.72;;
15996;SDS011;8103;51.340;12.326;2023-02-15T14:59:36;4.20;;;2.33;;
15996;SDS011;8103;51.340;12.326;2023-02-15T15:05:21;5.45;;;3.58;;
15996;SDS011;8103;51.340;12.326;2023-02-15T15:08:02;3.08;;;2.67;;
15996;SDS011;8103;51.340;12.326;2023-02-15T15:13:34;3.55;;;3.20;;
15996;SDS011;8103;51.340;12.326;2023-02-15T15:25:42;11.10;;;4.72;;
15996;SDS011;8103;51.340;12.326;2023-02-15T15:31:35;7.13;;;4.20;;
15996;SDS011;8103;51.340;12.326;2023-02-15T15:34:21;8.75;;;4.32;;
15996;SDS011;8103;51.340;12.326;2023-02-15T15:38:17;7.72;;;4.32;;
15996;SDS011;8103;51.340;12.326;2023-02-15T15:41:07;11.27;;;6.18;;
15996;SDS011;8103;51.340;12.326;2023-02-15T15:44:28;6.40;;;4.00;;
15996;SDS011;8103;51.340;12.326;2023-02-15T15:47:22;4.80;;;3.80;;
15996;SDS011;8103;51.340;12.326;2023-02-15T15:50:15;8.48;;;3.88;;
15996;SDS011;8103;51.340;12.326;2023-02-15T15:52:52;5.93;;;3.95;;
15996;SDS011;8103;51.340;12.326;2023-02-15T15:55:22;6.93;;;4.32;;
15996;SDS011;8103;51.340;12.326;2023-02-15T15:58:09;7.30;;;4.25;;
15996;SDS011;8103;51.340;12.326;2023-02-15T16:00:51;7.28;;;4.13;;
15996;SDS011;8103;51.340;12.326;2023-02-15T16:03:27;3.78;;;2.83;;
15996;SDS011;8103;51.340;12.326;2023-02-15T16:05:55;7.63;;;4.47;;
15996;SDS011;8103;51.340;12.326;2023-02-15T16:11:22;11.30;;;5.82;;
15996;SDS011;8103;51.340;12.326;2023-02-15T16:13:53;6.43;;;4.65;;
15996;SDS011;8103;51.340;12.326;2023-02-15T16:16:21;5.35;;;4.13;;
15996;SDS011;8103;51.340;12.326;2023-02-15T16:18:56;6.85;;;4.35;;
15996;SDS011;8103;51.340;12.326;2023-02-15T16:21:29;9.05;;;5.05;;
15996;SDS011;8103;51.340;12.326;2023-02-15T16:29:57;8.60;;;4.75;;
15996;SDS011;8103;51.340;12.326;2023-02-15T16:32:24;10.38;;;5.35;;
15996;SDS011;8103;51.340;12.326;2023-02-15T16:34:58;9.82;;;5.78;;
15996;SDS011;8103;51.340;12.326;2023-02-15T16:37:31;8.23;;;6.03;;
15996;SDS011;8103;51.340;12.326;2023-02-15T16:40:00;7.43;;;5.68;;
15996;SDS011;8103;51.340;12.326;2023-02-15T16:42:27;10.20;;;5.68;;
15996;SDS011;8103;51.340;12.326;2023-02-15T16:49:02;32.63;;;20.30;;
15996;SDS011;8103;51.340;12.326;2023-02-15T16:51:40;25.33;;;17.08;;
15996;SDS011;8103;51.340;12.326;2023-02-15T16:54:16;20.50;;;11.93;;
15996;SDS011;8103;51.340;12.326;2023-02-15T16:56:47;11.43;;;7.53;;
15996;SDS011;8103;51.340;12.326;2023-02-15T16:59:28;10.70;;;7.03;;
15996;SDS011;8103;51.340;12.326;2023-02-15T17:02:04;13.02;;;7.60;;
15996;SDS011;8103;51.340;12.326;2023-02-15T17:05:18;11.40;;;8.70;;
15996;SDS011;8103;51.340;12.326;2023-02-15T17:11:39;8.65;;;6.78;;
15996;SDS011;8103;51.340;12.326;2023-02-15T17:16:30;10.95;;;7.07;;
15996;SDS011;8103;51.340;12.326;2023-02-15T17:19:02;11.90;;;7.00;;
15996;SDS011;8103;51.340;12.326;2023-02-15T17:21:40;9.68;;;6.88;;
15996;SDS011;8103;51.340;12.326;2023-02-15T17:28:22;7.15;;;6.13;;
15996;SDS011;8103;51.340;12.326;2023-02-15T17:30:53;9.23;;;7.13;;
15996;SDS011;8103;51.340;12.326;2023-02-15T17:33:24;12.60;;;8.77;;
15996;SDS011;8103;51.340;12.326;2023-02-15T17:36:34;15.27;;;8.98;;
15996;SDS011;8103;51.340;12.326;2023-02-15T17:41:23;11.63;;;7.82;;
15996;SDS011;8103;51.340;12.326;2023-02-15T17:43:51;13.35;;;8.88;;
15996;SDS011;8103;51.340;12.326;2023-02-15T17:46:18;11.52;;;9.00;;
15996;SDS011;8103;51.340;12.326;2023-02-15T17:48:49;12.43;;;9.15;;
15996;SDS011;8103;51.340;12.326;2023-02-15T17:51:20;17.48;;;10.13;;
15996;SDS011;8103;51.340;12.326;2023-02-15T17:53:47;13.38;;;8.68;;
15996;SDS011;8103;51.340;12.326;2023-02-15T17:56:34;10.35;;;8.15;;
15996;SDS011;8103;51.340;12.326;2023-02-15T17:59:03;11.32;;;7.65;;
15996;SDS011;8103;51.340;12.326;2023-02-15T18:01:36;12.43;;;8.80;;
15996;SDS011;8103;51.340;12.326;2023-02-15T18:04:31;8.68;;;6.85;;